Aberdeen, NJ

3:09 PM EDT on October 01, 2014 (GMT -0400)
Newark International | Change Station
CLOSE
Current Station
Airport
Location: Newark,
Elevation: 30 ft
Nearby Weather Stations

Elev 30 ft 40.68 °N, 74.17 °W | Updated 18 minutes ago

Overcast
Overcast
65 °F
Feels Like 65 °F
N
12
Wind Variable Wind from NNE

Today
High -- | Low -- °F
--% Chance of Precip.
Yesterday
High -- | Low -- °F
Precip. -- in
6:53 AM 6:39 PM
Waxing Crescent, 50% visible
Pressure 30.03 in
Visibility 10.0 miles
Clouds Few 900 ft
Mostly Cloudy 1500 ft
Overcast 2000 ft
Dew Point 59 °F
Humidity 81%
Rainfall 0.00 in
Snow Depth Not available.
UV 1 out of 12
Pollen 2.30 out of 12
Air Quality Not available.
Flu Activity Not available.
METAR KEWR 011851Z 03010KT 10SM FEW009 BKN015 OVC020 18/15 A3003 RMK AO2 SLP169 T01830150

More Conditions Fewer Conditions

Pressure 30.03 in
Visibility 10.0 miles
Clouds Few 900 ft
Mostly Cloudy 1500 ft
Overcast 2000 ft
Dew Point 59 °F
Humidity 81%
Rainfall 0.00 in
Snow Depth Not available.
UV 1 out of 12
Pollen 2.30 out of 12
Air Quality Not available.
Flu Activity Not available.
METAR KEWR 011851Z 03010KT 10SM FEW009 BKN015 OVC020 18/15 A3003 RMK AO2 SLP169 T01830150

More Conditions Fewer Conditions

10-Day Weather Forecast

Almanac

Astronomy

Oct. 01, 2014 Rise Set
Actual Time 6:53 AM EDT 6:39 PM EDT
Civil Twilight 6:26 AM EDT 7:06 PM EDT
Nautical Twilight 5:54 AM EDT 7:37 PM EDT
Astronomical Twilight 5:22 AM EDT 8:09 PM EDT
Moon 1:52 PM EDT No Moon Set
Length of Visible Light 12h 40m
Length of Day
11h 45m
Tomorrow will be 2m 38s shorter.
Waxing Crescent, 50% of the Moon is Illuminated
Today
Waxing Crescent
Oct 1
First Quarter
Oct 8
Full
Oct 15
Last Quarter
Oct 23
New

Today's Extremes

State Highs State Lows

Community

WunderPhotos

Upload Photos

1,758,010 photos uploaded!

WunderBlogs® & News

Nearby

Snow Depth

Station Depth Elevation
No new snow has been reported.

Earthquake Activity

City Distance Mag. Time & Date
No recent earthquake activity has been reported nearby.
Minimum magnitude displayed is 2.5.

Coastal Water Temperatures

Place Temperature
Sandy Hook, NJ 68.0 °F
The Battery, NY 69.1 °F
Bergen Point West Reach, NJ 69.1 °F
Kings Point, NY 66.9 °F

Nearby Weather Stations